sensor_id;sensor_type;location;lat;lon;timestamp;pressure;altitude;pressure_sealevel;temperature;humidity
56040;BME280;43937;41.366;2.072;2023-04-23T00:00:18;100525.59;;;19.53;69.30
56040;BME280;43937;41.366;2.072;2023-04-23T00:07:25;100521.06;;;19.04;72.68
56040;BME280;43937;41.366;2.072;2023-04-23T00:09:51;100519.06;;;19.11;72.39
56040;BME280;43937;41.366;2.072;2023-04-23T00:12:20;100528.88;;;19.25;72.01
56040;BME280;43937;41.366;2.072;2023-04-23T00:14:46;100524.13;;;19.32;71.57
56040;BME280;43937;41.366;2.072;2023-04-23T00:17:11;100522.22;;;19.33;71.48
56040;BME280;43937;41.366;2.072;2023-04-23T00:19:37;100522.00;;;19.16;71.89
56040;BME280;43937;41.366;2.072;2023-04-23T00:22:02;100514.84;;;19.08;72.73
56040;BME280;43937;41.366;2.072;2023-04-23T00:24:28;100510.53;;;18.94;72.22
56040;BME280;43937;41.366;2.072;2023-04-23T00:26:53;100509.00;;;18.98;71.69
56040;BME280;43937;41.366;2.072;2023-04-23T00:29:18;100505.72;;;19.08;71.08
56040;BME280;43937;41.366;2.072;2023-04-23T00:31:44;100480.31;;;18.81;71.92
56040;BME280;43937;41.366;2.072;2023-04-23T00:34:10;100494.38;;;18.72;73.02
56040;BME280;43937;41.366;2.072;2023-04-23T00:36:36;100493.88;;;18.57;73.59
56040;BME280;43937;41.366;2.072;2023-04-23T00:39:01;100502.31;;;18.62;74.26
56040;BME280;43937;41.366;2.072;2023-04-23T00:43:00;100483.69;;;18.58;73.59
56040;BME280;43937;41.366;2.072;2023-04-23T00:45:26;100490.91;;;18.84;73.46
56040;BME280;43937;41.366;2.072;2023-04-23T00:47:52;100509.88;;;19.17;72.88
56040;BME280;43937;41.366;2.072;2023-04-23T00:51:21;100506.25;;;18.98;74.02
56040;BME280;43937;41.366;2.072;2023-04-23T00:53:49;100497.03;;;18.86;75.07
56040;BME280;43937;41.366;2.072;2023-04-23T00:56:16;100502.94;;;18.89;75.25
56040;BME280;43937;41.366;2.072;2023-04-23T00:58:42;100502.03;;;18.70;76.41
56040;BME280;43937;41.366;2.072;2023-04-23T01:01:08;100492.28;;;18.93;75.38
56040;BME280;43937;41.366;2.072;2023-04-23T01:03:34;100504.69;;;18.84;76.05
56040;BME280;43937;41.366;2.072;2023-04-23T01:06:01;100509.38;;;18.83;76.25
56040;BME280;43937;41.366;2.072;2023-04-23T01:08:27;100509.88;;;18.67;77.67
56040;BME280;43937;41.366;2.072;2023-04-23T01:10:55;100518.09;;;18.80;76.78
56040;BME280;43937;41.366;2.072;2023-04-23T01:13:21;100515.44;;;18.92;75.95
56040;BME280;43937;41.366;2.072;2023-04-23T01:15:47;100519.50;;;19.08;75.10
56040;BME280;43937;41.366;2.072;2023-04-23T01:18:13;100502.22;;;18.75;75.53
56040;BME280;43937;41.366;2.072;2023-04-23T01:22:24;100515.25;;;18.37;77.30
56040;BME280;43937;41.366;2.072;2023-04-23T01:24:50;100461.28;;;17.97;77.59
56040;BME280;43937;41.366;2.072;2023-04-23T01:27:16;100512.72;;;18.03;78.22
56040;BME280;43937;41.366;2.072;2023-04-23T01:29:44;100515.25;;;18.05;78.17
56040;BME280;43937;41.366;2.072;2023-04-23T01:34:17;100512.38;;;18.25;76.81
56040;BME280;43937;41.366;2.072;2023-04-23T01:36:44;100499.75;;;18.11;77.94
56040;BME280;43937;41.366;2.072;2023-04-23T01:39:10;100511.16;;;18.14;77.37
56040;BME280;43937;41.366;2.072;2023-04-23T01:41:36;100509.97;;;18.03;78.67
56040;BME280;43937;41.366;2.072;2023-04-23T01:44:01;100513.03;;;18.20;78.08
56040;BME280;43937;41.366;2.072;2023-04-23T01:48:02;100518.78;;;18.12;77.96
56040;BME280;43937;41.366;2.072;2023-04-23T01:50:27;100491.63;;;17.84;78.10
56040;BME280;43937;41.366;2.072;2023-04-23T01:52:54;100493.75;;;17.89;78.15
56040;BME280;43937;41.366;2.072;2023-04-23T01:55:19;100511.25;;;18.33;76.94
56040;BME280;43937;41.366;2.072;2023-04-23T01:57:46;100514.66;;;17.96;78.20
56040;BME280;43937;41.366;2.072;2023-04-23T02:03:18;100457.13;;;17.81;75.99
56040;BME280;43937;41.366;2.072;2023-04-23T02:05:44;100513.38;;;18.30;76.06
56040;BME280;43937;41.366;2.072;2023-04-23T02:08:11;100512.53;;;17.98;76.11
56040;BME280;43937;41.366;2.072;2023-04-23T02:10:36;100508.56;;;17.88;77.01
56040;BME280;43937;41.366;2.072;2023-04-23T02:14:15;100498.53;;;18.00;75.35
56040;BME280;43937;41.366;2.072;2023-04-23T02:16:41;100507.97;;;17.79;76.26
56040;BME280;43937;41.366;2.072;2023-04-23T02:19:07;100513.28;;;17.74;76.99
56040;BME280;43937;41.366;2.072;2023-04-23T02:21:33;100518.94;;;17.92;76.12
56040;BME280;43937;41.366;2.072;2023-04-23T02:25:26;100517.69;;;18.20;74.69
56040;BME280;43937;41.366;2.072;2023-04-23T02:27:51;100528.47;;;18.21;74.92
56040;BME280;43937;41.366;2.072;2023-04-23T02:30:17;100525.91;;;18.26;74.50
56040;BME280;43937;41.366;2.072;2023-04-23T02:32:42;100515.19;;;18.12;74.87
56040;BME280;43937;41.366;2.072;2023-04-23T02:35:08;100521.72;;;18.17;74.72
56040;BME280;43937;41.366;2.072;2023-04-23T02:37:35;100521.41;;;18.32;74.40
56040;BME280;43937;41.366;2.072;2023-04-23T02:40:01;100527.97;;;18.38;73.47
56040;BME280;43937;41.366;2.072;2023-04-23T02:42:28;100528.59;;;18.40;73.43
56040;BME280;43937;41.366;2.072;2023-04-23T02:47:02;100506.97;;;18.05;73.85
56040;BME280;43937;41.366;2.072;2023-04-23T02:49:28;100531.94;;;18.67;72.37
56040;BME280;43937;41.366;2.072;2023-04-23T02:51:53;100534.00;;;18.78;71.85
56040;BME280;43937;41.366;2.072;2023-04-23T02:54:19;100534.19;;;18.83;71.19
56040;BME280;43937;41.366;2.072;2023-04-23T02:56:44;100538.69;;;18.77;71.19
56040;BME280;43937;41.366;2.072;2023-04-23T02:59:10;100527.69;;;18.71;70.97
56040;BME280;43937;41.366;2.072;2023-04-23T03:01:35;100531.19;;;18.85;71.47
56040;BME280;43937;41.366;2.072;2023-04-23T03:04:01;100533.56;;;18.81;71.20
56040;BME280;43937;41.366;2.072;2023-04-23T03:06:28;100527.25;;;18.99;70.50
56040;BME280;43937;41.366;2.072;2023-04-23T03:08:54;100541.38;;;19.09;70.23
56040;BME280;43937;41.366;2.072;2023-04-23T03:11:20;100535.69;;;19.04;69.89
56040;BME280;43937;41.366;2.072;2023-04-23T03:14:18;100508.34;;;18.77;70.36
56040;BME280;43937;41.366;2.072;2023-04-23T03:16:43;100518.66;;;18.89;69.94
56040;BME280;43937;41.366;2.072;2023-04-23T03:21:06;100529.63;;;18.95;69.93
56040;BME280;43937;41.366;2.072;2023-04-23T03:26:23;100521.16;;;18.90;69.82
56040;BME280;43937;41.366;2.072;2023-04-23T03:28:49;100535.66;;;18.86;70.26
56040;BME280;43937;41.366;2.072;2023-04-23T03:31:14;100532.78;;;18.74;70.29
56040;BME280;43937;41.366;2.072;2023-04-23T03:33:39;100541.19;;;18.54;71.43
56040;BME280;43937;41.366;2.072;2023-04-23T03:36:05;100534.94;;;18.65;70.92
56040;BME280;43937;41.366;2.072;2023-04-23T03:38:30;100535.31;;;18.75;70.66
56040;BME280;43937;41.366;2.072;2023-04-23T03:40:56;100531.88;;;18.80;70.29
56040;BME280;43937;41.366;2.072;2023-04-23T03:43:21;100533.94;;;18.85;70.38
56040;BME280;43937;41.366;2.072;2023-04-23T03:45:47;100521.16;;;18.90;69.63
56040;BME280;43937;41.366;2.072;2023-04-23T03:48:26;100518.75;;;19.01;69.13
56040;BME280;43937;41.366;2.072;2023-04-23T03:51:48;100525.19;;;19.13;69.11
56040;BME280;43937;41.366;2.072;2023-04-23T03:54:14;100531.31;;;19.15;68.87
56040;BME280;43937;41.366;2.072;2023-04-23T03:56:39;100533.41;;;19.38;67.92
56040;BME280;43937;41.366;2.072;2023-04-23T03:59:05;100533.88;;;19.35;67.68
56040;BME280;43937;41.366;2.072;2023-04-23T04:01:30;100512.78;;;19.04;68.44
56040;BME280;43937;41.366;2.072;2023-04-23T04:03:57;100531.19;;;19.28;68.12
56040;BME280;43937;41.366;2.072;2023-04-23T04:06:22;100537.81;;;19.45;67.59
56040;BME280;43937;41.366;2.072;2023-04-23T04:08:48;100530.94;;;19.11;68.47
56040;BME280;43937;41.366;2.072;2023-04-23T04:11:13;100538.53;;;19.16;68.88
56040;BME280;43937;41.366;2.072;2023-04-23T04:13:39;100541.78;;;19.31;68.48
56040;BME280;43937;41.366;2.072;2023-04-23T04:16:05;100541.22;;;19.22;68.51
56040;BME280;43937;41.366;2.072;2023-04-23T04:18:30;100505.34;;;19.04;69.42
56040;BME280;43937;41.366;2.072;2023-04-23T04:20:55;100547.84;;;19.40;68.93
56040;BME280;43937;41.366;2.072;2023-04-23T04:23:21;100548.50;;;19.35;69.51
56040;BME280;43937;41.366;2.072;2023-04-23T04:25:46;100544.63;;;19.43;69.24
56040;BME280;43937;41.366;2.072;2023-04-23T04:28:15;100538.69;;;19.21;69.25
56040;BME280;43937;41.366;2.072;2023-04-23T04:32:03;100551.97;;;19.31;68.72
56040;BME280;43937;41.366;2.072;2023-04-23T04:34:29;100551.88;;;19.19;69.32
56040;BME280;43937;41.366;2.072;2023-04-23T04:36:55;100548.16;;;18.88;69.64
56040;BME280;43937;41.366;2.072;2023-04-23T04:39:20;100553.09;;;18.80;70.04
56040;BME280;43937;41.366;2.072;2023-04-23T04:41:46;100545.25;;;19.02;69.97
56040;BME280;43937;41.366;2.072;2023-04-23T04:44:12;100549.72;;;19.21;68.84
56040;BME280;43937;41.366;2.072;2023-04-23T04:46:39;100516.84;;;19.01;68.59
56040;BME280;43937;41.366;2.072;2023-04-23T04:49:11;100532.13;;;18.97;68.52
56040;BME280;43937;41.366;2.072;2023-04-23T04:51:37;100535.41;;;19.12;68.27
56040;BME280;43937;41.366;2.072;2023-04-23T04:54:03;100526.66;;;19.15;68.13
56040;BME280;43937;41.366;2.072;2023-04-23T04:56:44;100543.22;;;19.15;68.34
56040;BME280;43937;41.366;2.072;2023-04-23T05:01:01;100542.69;;;19.43;67.60
56040;BME280;43937;41.366;2.072;2023-04-23T05:03:27;100515.47;;;19.10;68.64
56040;BME280;43937;41.366;2.072;2023-04-23T05:05:53;100524.50;;;19.36;68.07
56040;BME280;43937;41.366;2.072;2023-04-23T05:08:23;100548.75;;;19.52;67.99
56040;BME280;43937;41.366;2.072;2023-04-23T05:12:38;100506.34;;;19.10;67.90
56040;BME280;43937;41.366;2.072;2023-04-23T05:15:07;100542.59;;;19.13;68.39
56040;BME280;43937;41.366;2.072;2023-04-23T05:17:32;100549.06;;;18.50;70.49
56040;BME280;43937;41.366;2.072;2023-04-23T05:19:58;100533.66;;;18.93;68.96
56040;BME280;43937;41.366;2.072;2023-04-23T05:22:25;100544.28;;;19.14;68.06
56040;BME280;43937;41.366;2.072;2023-04-23T05:24:50;100545.06;;;19.21;67.42
56040;BME280;43937;41.366;2.072;2023-04-23T05:27:15;100543.88;;;19.11;67.43
56040;BME280;43937;41.366;2.072;2023-04-23T05:29:41;100547.72;;;19.10;67.45
56040;BME280;43937;41.366;2.072;2023-04-23T05:32:06;100536.63;;;19.16;67.22
56040;BME280;43937;41.366;2.072;2023-04-23T05:34:32;100518.50;;;19.02;67.22
56040;BME280;43937;41.366;2.072;2023-04-23T05:36:57;100558.53;;;19.30;67.32
56040;BME280;43937;41.366;2.072;2023-04-23T05:39:23;100562.56;;;19.34;67.03
56040;BME280;43937;41.366;2.072;2023-04-23T05:41:48;100562.63;;;19.45;66.76
56040;BME280;43937;41.366;2.072;2023-04-23T05:44:13;100569.09;;;19.58;66.11
56040;BME280;43937;41.366;2.072;2023-04-23T05:46:39;100558.34;;;19.50;66.15
56040;BME280;43937;41.366;2.072;2023-04-23T05:49:04;100568.31;;;19.69;65.65
56040;BME280;43937;41.366;2.072;2023-04-23T05:51:30;100547.59;;;19.60;65.33
56040;BME280;43937;41.366;2.072;2023-04-23T05:53:56;100577.75;;;19.80;65.36
56040;BME280;43937;41.366;2.072;2023-04-23T05:56:21;100567.78;;;19.79;65.28
56040;BME280;43937;41.366;2.072;2023-04-23T05:58:47;100564.56;;;19.82;65.67
56040;BME280;43937;41.366;2.072;2023-04-23T06:01:12;100560.47;;;19.84;64.31
56040;BME280;43937;41.366;2.072;2023-04-23T06:03:38;100562.38;;;20.02;64.04
56040;BME280;43937;41.366;2.072;2023-04-23T06:06:05;100563.91;;;19.98;63.92
56040;BME280;43937;41.366;2.072;2023-04-23T06:08:31;100564.53;;;20.00;63.69
56040;BME280;43937;41.366;2.072;2023-04-23T06:10:56;100562.47;;;19.96;63.62
56040;BME280;43937;41.366;2.072;2023-04-23T06:13:22;100580.81;;;19.90;63.74
56040;BME280;43937;41.366;2.072;2023-04-23T06:17:28;100566.84;;;20.03;63.86
56040;BME280;43937;41.366;2.072;2023-04-23T06:19:53;100580.72;;;20.27;62.74
56040;BME280;43937;41.366;2.072;2023-04-23T06:22:18;100583.38;;;20.22;62.90
56040;BME280;43937;41.366;2.072;2023-04-23T06:24:44;100578.13;;;20.32;62.65
56040;BME280;43937;41.366;2.072;2023-04-23T06:27:09;100563.56;;;20.55;61.84
56040;BME280;43937;41.366;2.072;2023-04-23T06:29:35;100579.22;;;20.73;61.43
56040;BME280;43937;41.366;2.072;2023-04-23T06:32:01;100588.78;;;22.00;57.70
56040;BME280;43937;41.366;2.072;2023-04-23T06:36:07;100564.13;;;21.46;58.09
56040;BME280;43937;41.366;2.072;2023-04-23T06:38:35;100588.25;;;22.14;57.07
56040;BME280;43937;41.366;2.072;2023-04-23T06:41:02;100553.22;;;25.60;48.26
56040;BME280;43937;41.366;2.072;2023-04-23T06:43:27;100576.09;;;25.67;46.35
56040;BME280;43937;41.366;2.072;2023-04-23T06:47:53;100579.47;;;24.57;49.31
56040;BME280;43937;41.366;2.072;2023-04-23T06:53:46;100576.81;;;25.10;47.87
56040;BME280;43937;41.366;2.072;2023-04-23T06:56:11;100588.28;;;26.03;45.83
56040;BME280;43937;41.366;2.072;2023-04-23T06:58:36;100580.53;;;25.16;47.67
56040;BME280;43937;41.366;2.072;2023-04-23T07:01:58;100586.84;;;25.43;47.11
56040;BME280;43937;41.366;2.072;2023-04-23T07:04:24;100587.41;;;25.50;46.66
56040;BME280;43937;41.366;2.072;2023-04-23T07:08:00;100573.19;;;23.96;49.48
56040;BME280;43937;41.366;2.072;2023-04-23T07:11:49;100588.22;;;24.22;49.50
56040;BME280;43937;41.366;2.072;2023-04-23T07:14:15;100586.03;;;24.02;50.15
56040;BME280;43937;41.366;2.072;2023-04-23T07:18:28;100580.75;;;23.40;51.88
56040;BME280;43937;41.366;2.072;2023-04-23T07:20:53;100584.31;;;23.01;52.38
56040;BME280;43937;41.366;2.072;2023-04-23T07:23:19;100589.66;;;23.42;52.48
56040;BME280;43937;41.366;2.072;2023-04-23T07:25:44;100588.25;;;23.39;51.78
56040;BME280;43937;41.366;2.072;2023-04-23T07:28:10;100583.50;;;23.01;52.19
56040;BME280;43937;41.366;2.072;2023-04-23T07:31:42;100561.44;;;23.50;50.73
56040;BME280;43937;41.366;2.072;2023-04-23T07:34:08;100589.19;;;24.33;49.46
56040;BME280;43937;41.366;2.072;2023-04-23T07:36:34;100588.66;;;24.09;50.41
56040;BME280;43937;41.366;2.072;2023-04-23T07:39:00;100587.09;;;26.93;43.88
56040;BME280;43937;41.366;2.072;2023-04-23T07:41:25;100568.84;;;26.44;44.04
56040;BME280;43937;41.366;2.072;2023-04-23T07:43:51;100570.81;;;28.26;40.50
56040;BME280;43937;41.366;2.072;2023-04-23T07:46:16;100587.13;;;30.85;36.24
56040;BME280;43937;41.366;2.072;2023-04-23T07:48:42;100587.63;;;32.22;33.26
56040;BME280;43937;41.366;2.072;2023-04-23T07:51:08;100587.09;;;32.70;31.67
56040;BME280;43937;41.366;2.072;2023-04-23T07:53:33;100594.56;;;33.73;30.80
56040;BME280;43937;41.366;2.072;2023-04-23T07:55:59;100597.59;;;34.51;28.77
56040;BME280;43937;41.366;2.072;2023-04-23T07:58:25;100598.34;;;32.47;31.26
56040;BME280;43937;41.366;2.072;2023-04-23T08:00:50;100581.59;;;33.32;30.56
56040;BME280;43937;41.366;2.072;2023-04-23T08:04:36;100590.47;;;33.48;30.63
56040;BME280;43937;41.366;2.072;2023-04-23T08:07:02;100589.09;;;34.34;28.91
56040;BME280;43937;41.366;2.072;2023-04-23T08:09:27;100590.91;;;34.21;29.21
56040;BME280;43937;41.366;2.072;2023-04-23T08:11:53;100592.94;;;35.25;27.60
56040;BME280;43937;41.366;2.072;2023-04-23T08:16:25;100594.50;;;30.81;33.69
56040;BME280;43937;41.366;2.072;2023-04-23T08:18:51;100584.84;;;29.00;36.64
56040;BME280;43937;41.366;2.072;2023-04-23T08:21:16;100589.94;;;28.04;38.42
56040;BME280;43937;41.366;2.072;2023-04-23T08:23:42;100590.22;;;30.27;35.67
56040;BME280;43937;41.366;2.072;2023-04-23T08:27:30;100585.91;;;30.53;35.35
56040;BME280;43937;41.366;2.072;2023-04-23T08:29:56;100591.50;;;31.24;35.08
56040;BME280;43937;41.366;2.072;2023-04-23T08:32:21;100589.38;;;33.04;32.72
56040;BME280;43937;41.366;2.072;2023-04-23T08:34:47;100572.53;;;33.84;30.38
56040;BME280;43937;41.366;2.072;2023-04-23T08:37:12;100584.00;;;34.79;29.07
56040;BME280;43937;41.366;2.072;2023-04-23T08:39:38;100581.13;;;35.23;28.51
56040;BME280;43937;41.366;2.072;2023-04-23T08:42:14;100582.03;;;34.80;29.79
56040;BME280;43937;41.366;2.072;2023-04-23T08:44:41;100578.44;;;32.66;32.38
56040;BME280;43937;41.366;2.072;2023-04-23T08:47:09;100570.13;;;31.56;34.12
56040;BME280;43937;41.366;2.072;2023-04-23T08:50:23;100571.22;;;32.96;31.42
56040;BME280;43937;41.366;2.072;2023-04-23T08:52:52;100579.50;;;33.15;30.92
56040;BME280;43937;41.366;2.072;2023-04-23T08:55:18;100564.69;;;33.10;32.14
56040;BME280;43937;41.366;2.072;2023-04-23T08:57:46;100562.81;;;32.10;32.99
56040;BME280;43937;41.366;2.072;2023-04-23T09:00:13;100568.03;;;32.53;32.36
56040;BME280;43937;41.366;2.072;2023-04-23T09:03:49;100566.69;;;31.86;33.70
56040;BME280;43937;41.366;2.072;2023-04-23T09:06:14;100559.69;;;30.96;35.00
56040;BME280;43937;41.366;2.072;2023-04-23T09:10:01;100562.91;;;29.41;36.61
56040;BME280;43937;41.366;2.072;2023-04-23T09:12:27;100557.94;;;29.04;36.77
56040;BME280;43937;41.366;2.072;2023-04-23T09:14:52;100566.59;;;28.68;38.51
56040;BME280;43937;41.366;2.072;2023-04-23T09:17:19;100557.50;;;28.52;38.41
56040;BME280;43937;41.366;2.072;2023-04-23T09:19:45;100569.75;;;28.12;39.23
56040;BME280;43937;41.366;2.072;2023-04-23T09:22:11;100556.31;;;28.14;39.42
56040;BME280;43937;41.366;2.072;2023-04-23T09:25:44;100560.84;;;28.89;38.17
56040;BME280;43937;41.366;2.072;2023-04-23T09:28:09;100570.41;;;28.48;37.78
56040;BME280;43937;41.366;2.072;2023-04-23T09:32:10;100568.75;;;28.47;38.92
56040;BME280;43937;41.366;2.072;2023-04-23T09:34:36;100561.09;;;28.92;37.72
56040;BME280;43937;41.366;2.072;2023-04-23T09:37:02;100562.03;;;28.43;38.62
56040;BME280;43937;41.366;2.072;2023-04-23T09:39:29;100558.75;;;28.70;38.31
56040;BME280;43937;41.366;2.072;2023-04-23T09:42:03;100561.94;;;28.59;38.28
56040;BME280;43937;41.366;2.072;2023-04-23T09:44:31;100567.13;;;28.31;38.66
56040;BME280;43937;41.366;2.072;2023-04-23T09:47:05;100570.78;;;27.67;40.07
56040;BME280;43937;41.366;2.072;2023-04-23T09:49:48;100566.28;;;28.36;38.84
56040;BME280;43937;41.366;2.072;2023-04-23T09:53:41;100570.72;;;28.37;39.15
56040;BME280;43937;41.366;2.072;2023-04-23T09:59:41;100555.28;;;28.00;40.04
56040;BME280;43937;41.366;2.072;2023-04-23T10:02:07;100566.50;;;27.90;40.82
56040;BME280;43937;41.366;2.072;2023-04-23T10:04:34;100549.28;;;28.22;39.85
56040;BME280;43937;41.366;2.072;2023-04-23T10:07:01;100551.06;;;28.52;39.65
56040;BME280;43937;41.366;2.072;2023-04-23T10:09:29;100550.84;;;28.77;38.74
56040;BME280;43937;41.366;2.072;2023-04-23T10:11:56;100547.88;;;28.19;40.17
56040;BME280;43937;41.366;2.072;2023-04-23T10:14:23;100520.69;;;28.30;38.96
56040;BME280;43937;41.366;2.072;2023-04-23T10:16:50;100559.88;;;28.30;39.07
56040;BME280;43937;41.366;2.072;2023-04-23T10:19:21;100551.66;;;27.94;40.10
56040;BME280;43937;41.366;2.072;2023-04-23T10:26:06;100557.72;;;27.26;41.64
56040;BME280;43937;41.366;2.072;2023-04-23T10:28:34;100553.66;;;27.83;41.51
56040;BME280;43937;41.366;2.072;2023-04-23T10:31:01;100553.63;;;28.38;40.18
56040;BME280;43937;41.366;2.072;2023-04-23T10:33:30;100559.31;;;28.72;39.38
56040;BME280;43937;41.366;2.072;2023-04-23T10:35:55;100551.94;;;28.82;39.21
56040;BME280;43937;41.366;2.072;2023-04-23T10:39:30;100559.19;;;27.99;40.56
56040;BME280;43937;41.366;2.072;2023-04-23T10:41:57;100550.78;;;27.99;40.86
56040;BME280;43937;41.366;2.072;2023-04-23T10:44:31;100550.84;;;27.89;41.15
56040;BME280;43937;41.366;2.072;2023-04-23T10:47:31;100554.09;;;28.11;41.58
56040;BME280;43937;41.366;2.072;2023-04-23T10:52:31;100549.03;;;28.18;41.40
56040;BME280;43937;41.366;2.072;2023-04-23T10:54:57;100541.94;;;27.81;42.04
56040;BME280;43937;41.366;2.072;2023-04-23T10:57:23;100526.56;;;27.79;42.32
56040;BME280;43937;41.366;2.072;2023-04-23T10:59:53;100516.56;;;28.17;41.70
56040;BME280;43937;41.366;2.072;2023-04-23T11:02:20;100532.09;;;27.89;42.14
56040;BME280;43937;41.366;2.072;2023-04-23T11:04:55;100533.88;;;28.19;41.22
56040;BME280;43937;41.366;2.072;2023-04-23T11:10:53;100518.91;;;28.00;42.43
56040;BME280;43937;41.366;2.072;2023-04-23T11:15:41;100516.03;;;28.10;42.50
56040;BME280;43937;41.366;2.072;2023-04-23T11:19:21;100508.69;;;28.24;42.19
56040;BME280;43937;41.366;2.072;2023-04-23T11:22:06;100518.63;;;28.46;41.83
56040;BME280;43937;41.366;2.072;2023-04-23T11:24:39;100515.78;;;27.42;43.64
56040;BME280;43937;41.366;2.072;2023-04-23T11:27:08;100510.28;;;26.90;45.97
56040;BME280;43937;41.366;2.072;2023-04-23T11:29:35;100507.41;;;27.26;45.60
56040;BME280;43937;41.366;2.072;2023-04-23T11:32:01;100491.78;;;27.05;46.10
56040;BME280;43937;41.366;2.072;2023-04-23T11:34:27;100468.41;;;26.55;47.20
56040;BME280;43937;41.366;2.072;2023-04-23T11:41:28;100490.44;;;26.77;47.11
56040;BME280;43937;41.366;2.072;2023-04-23T11:43:54;100478.94;;;27.24;46.21
56040;BME280;43937;41.366;2.072;2023-04-23T11:48:16;100482.13;;;27.67;45.63
56040;BME280;43937;41.366;2.072;2023-04-23T11:50:42;100471.63;;;27.38;45.98
56040;BME280;43937;41.366;2.072;2023-04-23T11:53:09;100486.16;;;28.05;44.52
56040;BME280;43937;41.366;2.072;2023-04-23T11:55:35;100469.03;;;27.57;45.38
56040;BME280;43937;41.366;2.072;2023-04-23T11:58:02;100471.50;;;28.14;44.61
56040;BME280;43937;41.366;2.072;2023-04-23T12:00:28;100458.84;;;28.26;43.61
56040;BME280;43937;41.366;2.072;2023-04-23T12:05:32;100437.94;;;28.14;43.71
56040;BME280;43937;41.366;2.072;2023-04-23T12:08:06;100465.88;;;27.79;45.17
56040;BME280;43937;41.366;2.072;2023-04-23T12:10:41;100456.41;;;27.65;45.12
56040;BME280;43937;41.366;2.072;2023-04-23T12:13:16;100460.13;;;28.05;44.27
56040;BME280;43937;41.366;2.072;2023-04-23T12:15:45;100453.97;;;27.48;45.07
56040;BME280;43937;41.366;2.072;2023-04-23T12:18:11;100461.47;;;27.63;44.99
56040;BME280;43937;41.366;2.072;2023-04-23T12:20:36;100445.34;;;27.99;44.64
56040;BME280;43937;41.366;2.072;2023-04-23T12:23:04;100455.00;;;27.68;44.74
56040;BME280;43937;41.366;2.072;2023-04-23T12:27:14;100453.03;;;27.68;44.86
56040;BME280;43937;41.366;2.072;2023-04-23T12:29:40;100438.03;;;27.54;45.71
56040;BME280;43937;41.366;2.072;2023-04-23T12:32:09;100433.78;;;26.81;46.83
56040;BME280;43937;41.366;2.072;2023-04-23T12:34:35;100444.22;;;27.40;45.54
56040;BME280;43937;41.366;2.072;2023-04-23T12:38:39;100432.63;;;27.62;45.52
56040;BME280;43937;41.366;2.072;2023-04-23T12:41:06;100425.78;;;27.34;45.49
56040;BME280;43937;41.366;2.072;2023-04-23T12:43:32;100413.44;;;27.95;45.04
56040;BME280;43937;41.366;2.072;2023-04-23T12:45:57;100417.63;;;27.48;45.29
56040;BME280;43937;41.366;2.072;2023-04-23T12:49:39;100414.66;;;27.84;44.71
56040;BME280;43937;41.366;2.072;2023-04-23T12:52:05;100414.22;;;28.06;43.51
56040;BME280;43937;41.366;2.072;2023-04-23T12:54:32;100413.41;;;28.05;44.39
56040;BME280;43937;41.366;2.072;2023-04-23T12:56:59;100406.31;;;27.79;44.29
56040;BME280;43937;41.366;2.072;2023-04-23T12:59:27;100398.78;;;27.69;44.96
56040;BME280;43937;41.366;2.072;2023-04-23T13:01:52;100412.63;;;27.95;44.07
56040;BME280;43937;41.366;2.072;2023-04-23T13:04:18;100400.09;;;28.21;42.83
56040;BME280;43937;41.366;2.072;2023-04-23T13:06:43;100400.97;;;27.82;42.80
56040;BME280;43937;41.366;2.072;2023-04-23T13:09:09;100400.16;;;28.50;41.62
56040;BME280;43937;41.366;2.072;2023-04-23T13:11:39;100393.38;;;28.22;42.01
56040;BME280;43937;41.366;2.072;2023-04-23T13:14:31;100398.75;;;27.79;42.98
56040;BME280;43937;41.366;2.072;2023-04-23T13:16:56;100390.91;;;27.71;42.75
56040;BME280;43937;41.366;2.072;2023-04-23T13:19:23;100393.06;;;27.45;43.12
56040;BME280;43937;41.366;2.072;2023-04-23T13:21:48;100363.25;;;27.20;43.76
56040;BME280;43937;41.366;2.072;2023-04-23T13:24:14;100389.91;;;27.57;43.12
56040;BME280;43937;41.366;2.072;2023-04-23T13:26:39;100383.38;;;27.17;43.15
56040;BME280;43937;41.366;2.072;2023-04-23T13:29:05;100396.13;;;27.44;42.97
56040;BME280;43937;41.366;2.072;2023-04-23T13:31:53;100345.03;;;26.58;44.31
56040;BME280;43937;41.366;2.072;2023-04-23T13:34:18;100383.00;;;25.87;46.51
56040;BME280;43937;41.366;2.072;2023-04-23T13:36:44;100351.22;;;26.09;45.83
56040;BME280;43937;41.366;2.072;2023-04-23T13:39:10;100374.03;;;26.41;45.09
56040;BME280;43937;41.366;2.072;2023-04-23T13:41:38;100355.94;;;26.03;45.95
56040;BME280;43937;41.366;2.072;2023-04-23T13:44:04;100369.59;;;26.45;45.53
56040;BME280;43937;41.366;2.072;2023-04-23T13:46:29;100370.97;;;26.43;45.39
56040;BME280;43937;41.366;2.072;2023-04-23T13:48:55;100364.00;;;26.50;44.89
56040;BME280;43937;41.366;2.072;2023-04-23T13:51:21;100366.53;;;26.52;44.76
56040;BME280;43937;41.366;2.072;2023-04-23T13:53:46;100369.59;;;26.56;44.94
56040;BME280;43937;41.366;2.072;2023-04-23T13:56:12;100366.78;;;26.40;44.96
56040;BME280;43937;41.366;2.072;2023-04-23T13:58:37;100362.91;;;26.11;45.55
56040;BME280;43937;41.366;2.072;2023-04-23T14:01:07;100360.69;;;26.02;46.18
56040;BME280;43937;41.366;2.072;2023-04-23T14:03:33;100350.06;;;26.61;45.29
56040;BME280;43937;41.366;2.072;2023-04-23T14:05:59;100331.97;;;25.81;45.89
56040;BME280;43937;41.366;2.072;2023-04-23T14:08:24;100346.72;;;26.08;46.29
56040;BME280;43937;41.366;2.072;2023-04-23T14:10:50;100347.84;;;25.81;45.64
56040;BME280;43937;41.366;2.072;2023-04-23T14:15:00;100331.13;;;26.12;46.33
56040;BME280;43937;41.366;2.072;2023-04-23T14:17:25;100312.94;;;26.35;45.28
56040;BME280;43937;41.366;2.072;2023-04-23T14:19:51;100322.97;;;26.41;46.42